createdAt,value
2018-12-30T00:01:01.046Z,7.50
2018-12-30T00:03:29.509Z,7.60
2018-12-30T00:05:58.667Z,7.60
2018-12-30T00:08:27.447Z,7.60
2018-12-30T00:10:56.135Z,7.50
2018-12-30T00:13:25.247Z,7.60
2018-12-30T00:15:54.035Z,7.60
2018-12-30T00:18:22.438Z,7.60
2018-12-30T00:20:50.839Z,7.60
2018-12-30T00:23:19.510Z,7.50
2018-12-30T00:25:47.921Z,7.50
2018-12-30T00:28:16.637Z,7.40
2018-12-30T00:30:45.037Z,7.40
2018-12-30T00:33:13.707Z,7.40
2018-12-30T00:35:42.117Z,7.40
2018-12-30T00:38:10.518Z,7.40
2018-12-30T00:40:39.259Z,7.30
2018-12-30T00:43:07.951Z,7.40
2018-12-30T00:45:36.417Z,7.40
2018-12-30T00:48:05.131Z,7.40
2018-12-30T00:50:34.027Z,7.30
2018-12-30T00:53:02.497Z,7.30
2018-12-30T00:55:30.898Z,7.30
2018-12-30T00:57:59.550Z,7.30
2018-12-30T01:00:27.940Z,7.30
2018-12-30T01:02:56.619Z,7.30
2018-12-30T01:05:25.290Z,7.30
2018-12-30T01:07:53.990Z,7.30
2018-12-30T01:10:22.391Z,7.20
2018-12-30T01:12:50.872Z,7.30
2018-12-30T01:15:19.253Z,7.30
2018-12-30T01:17:47.653Z,7.20
2018-12-30T01:20:16.335Z,7.20
2018-12-30T01:22:45.186Z,7.20
2018-12-30T01:25:13.877Z,7.20
2018-12-30T01:27:42.273Z,7.20
2018-12-30T01:30:10.675Z,7.30
2018-12-30T01:32:39.083Z,7.20
2018-12-30T01:35:07.481Z,7.20
2018-12-30T01:37:36.176Z,7.30
2018-12-30T01:40:05.586Z,7.20
2018-12-30T01:42:34.264Z,7.20
2018-12-30T01:45:02.658Z,7.30
2018-12-30T01:47:31.072Z,7.20
2018-12-30T01:49:59.533Z,7.20
2018-12-30T01:52:28.203Z,7.20
2018-12-30T01:54:56.987Z,7.20
2018-12-30T01:57:25.665Z,7.20
2018-12-30T01:59:54.761Z,7.10
2018-12-30T02:02:23.161Z,7.10
2018-12-30T02:04:51.558Z,7.10
2018-12-30T02:07:20.215Z,7.20
2018-12-30T02:09:48.610Z,7.20
2018-12-30T02:12:17.285Z,7.10
2018-12-30T02:14:45.968Z,7.00
2018-12-30T02:17:14.661Z,7.10
2018-12-30T02:19:43.142Z,7.10
2018-12-30T02:22:11.526Z,7.10
2018-12-30T02:24:39.926Z,7.10
2018-12-30T02:27:08.575Z,7.10
2018-12-30T02:29:37.262Z,7.10
2018-12-30T02:32:05.660Z,7.10
2018-12-30T02:34:34.327Z,7.10
2018-12-30T02:37:02.722Z,7.10
2018-12-30T02:39:31.145Z,7.00
2018-12-30T02:41:59.559Z,7.00
2018-12-30T02:44:28.260Z,7.10
2018-12-30T02:46:56.940Z,7.00
2018-12-30T02:49:25.350Z,7.10
2018-12-30T02:51:53.744Z,7.20
2018-12-30T02:54:22.159Z,7.20
2018-12-30T02:56:50.872Z,7.20
2018-12-30T02:59:19.555Z,7.20
2018-12-30T03:01:47.952Z,7.20
2018-12-30T03:04:16.648Z,7.20
2018-12-30T03:06:45.038Z,7.20
2018-12-30T03:09:13.434Z,7.20
2018-12-30T03:11:41.829Z,7.20
2018-12-30T03:14:10.546Z,7.30
2018-12-30T03:16:38.949Z,7.20
2018-12-30T03:19:07.344Z,7.20
2018-12-30T03:21:35.989Z,7.10
2018-12-30T03:24:04.691Z,7.20
2018-12-30T03:26:33.084Z,7.20
2018-12-30T03:29:01.874Z,7.10
2018-12-30T03:31:30.630Z,7.20
2018-12-30T03:33:59.043Z,7.20
2018-12-30T03:36:27.440Z,7.20
2018-12-30T03:38:55.844Z,7.10
2018-12-30T03:41:24.571Z,7.20
2018-12-30T03:43:53.049Z,7.20
2018-12-30T03:46:21.725Z,7.30
2018-12-30T03:48:50.458Z,7.30
2018-12-30T03:51:18.854Z,7.30
2018-12-30T03:53:47.497Z,7.30
2018-12-30T03:56:16.170Z,7.30
2018-12-30T03:58:44.563Z,7.30
2018-12-30T04:01:12.972Z,7.30
2018-12-30T04:03:41.372Z,7.30
2018-12-30T04:06:09.782Z,7.30
2018-12-30T04:08:38.494Z,7.30
2018-12-30T04:11:06.902Z,7.30
2018-12-30T04:13:35.637Z,7.30
2018-12-30T04:16:04.336Z,7.40
2018-12-30T04:18:33.016Z,7.40
2018-12-30T04:21:01.704Z,7.40
2018-12-30T04:23:30.386Z,7.40
2018-12-30T04:25:59.074Z,7.40
2018-12-30T04:28:27.476Z,7.30
2018-12-30T04:30:55.877Z,7.30
2018-12-30T04:33:24.542Z,7.20
2018-12-30T04:35:53.206Z,7.30
2018-12-30T04:38:21.611Z,7.20
2018-12-30T04:40:50.023Z,7.20
2018-12-30T04:43:19.653Z,7.20
2018-12-30T04:45:48.311Z,7.20
2018-12-30T04:48:16.939Z,7.30
2018-12-30T04:50:45.346Z,7.30
2018-12-30T04:53:13.786Z,7.30
2018-12-30T04:55:42.189Z,7.30
2018-12-30T04:58:10.872Z,7.30
2018-12-30T05:00:39.274Z,7.30
2018-12-30T05:03:07.674Z,7.30
2018-12-30T05:05:36.424Z,7.20
2018-12-30T05:08:05.111Z,7.30
2018-12-30T05:10:33.567Z,7.20
2018-12-30T05:13:01.969Z,7.20
2018-12-30T05:15:30.658Z,7.20
2018-12-30T05:17:59.344Z,7.20
2018-12-30T05:20:28.032Z,7.20
2018-12-30T05:22:56.452Z,7.20
2018-12-30T05:25:24.849Z,7.20
2018-12-30T05:27:53.578Z,7.30
2018-12-30T05:30:21.965Z,7.20
2018-12-30T05:32:50.639Z,7.30
2018-12-30T05:35:19.033Z,7.30
2018-12-30T05:37:47.712Z,7.30
2018-12-30T05:40:16.395Z,7.20
2018-12-30T05:42:44.791Z,7.20
2018-12-30T05:45:13.187Z,7.20
2018-12-30T05:47:41.939Z,7.20
2018-12-30T05:50:10.832Z,7.20
2018-12-30T05:52:42.066Z,7.30
2018-12-30T05:55:09.378Z,7.30
2018-12-30T05:57:37.786Z,7.30
2018-12-30T06:00:08.120Z,7.20
2018-12-30T06:02:36.827Z,7.20
2018-12-30T06:05:05.519Z,7.20
2018-12-30T06:07:34.198Z,7.30
2018-12-30T06:10:02.605Z,7.30
2018-12-30T06:12:31.257Z,7.30
2018-12-30T06:14:59.658Z,7.30
2018-12-30T06:17:28.330Z,8.60
2018-12-30T06:19:56.804Z,8.50
2018-12-30T06:22:25.222Z,8.20
2018-12-30T06:24:53.878Z,7.80
2018-12-30T06:27:22.291Z,7.60
2018-12-30T06:29:50.695Z,7.50
2018-12-30T06:32:19.422Z,7.50
2018-12-30T06:34:47.827Z,7.40
2018-12-30T06:37:16.487Z,7.30
2018-12-30T06:39:44.891Z,7.30
2018-12-30T06:42:13.302Z,7.20
2018-12-30T06:44:41.710Z,7.20
2018-12-30T06:47:10.410Z,7.20
2018-12-30T06:49:39.049Z,7.20
2018-12-30T06:52:07.787Z,7.10
2018-12-30T06:54:36.197Z,7.10
2018-12-30T06:57:04.860Z,7.10
2018-12-30T06:59:33.536Z,7.20
2018-12-30T07:02:02.164Z,7.60
2018-12-30T07:04:30.567Z,8.00
2018-12-30T07:06:59.208Z,7.80
2018-12-30T07:09:27.617Z,7.70
2018-12-30T07:11:56.005Z,7.60
2018-12-30T07:14:24.402Z,7.50
2018-12-30T07:16:52.794Z,7.40
2018-12-30T07:19:21.207Z,7.30
2018-12-30T07:21:49.878Z,7.20
2018-12-30T07:24:18.284Z,7.30
2018-12-30T07:26:46.946Z,7.20
2018-12-30T07:29:15.361Z,7.20
2018-12-30T07:31:43.758Z,7.30
2018-12-30T07:34:12.184Z,7.30
2018-12-30T07:36:40.823Z,7.30
2018-12-30T07:39:09.226Z,7.20
2018-12-30T07:41:37.626Z,7.30
2018-12-30T07:44:06.024Z,7.30
2018-12-30T07:46:34.422Z,7.30
2018-12-30T07:49:02.826Z,7.20
2018-12-30T07:51:31.559Z,7.20
2018-12-30T07:54:00.237Z,7.10
2018-12-30T07:56:29.426Z,7.30
2018-12-30T07:58:57.838Z,7.20
2018-12-30T08:01:26.238Z,7.30
2018-12-30T08:03:54.665Z,7.20
2018-12-30T08:06:23.063Z,7.20
2018-12-30T08:08:51.473Z,7.20
2018-12-30T08:11:20.136Z,7.20
2018-12-30T08:13:48.550Z,7.30
2018-12-30T08:16:16.946Z,7.30
2018-12-30T08:18:45.679Z,7.30
2018-12-30T08:21:14.065Z,7.30
2018-12-30T08:23:42.473Z,7.30
2018-12-30T08:26:10.879Z,7.30
2018-12-30T08:28:39.288Z,7.30
2018-12-30T08:31:07.747Z,7.20
2018-12-30T08:33:36.151Z,7.20
2018-12-30T08:36:04.847Z,7.30
2018-12-30T08:38:33.238Z,7.20
2018-12-30T08:41:02.539Z,7.20
2018-12-30T08:43:30.934Z,7.30
2018-12-30T08:45:59.334Z,7.20
2018-12-30T08:48:28.067Z,7.10
2018-12-30T08:50:56.478Z,7.10
2018-12-30T08:53:29.309Z,7.10
2018-12-30T08:55:55.267Z,7.10
2018-12-30T08:58:23.745Z,7.10
2018-12-30T09:00:52.151Z,7.20
2018-12-30T09:03:20.533Z,7.20
2018-12-30T09:05:48.938Z,7.20
2018-12-30T09:08:17.334Z,7.30
2018-12-30T09:10:46.145Z,7.30
2018-12-30T09:13:14.864Z,7.30
2018-12-30T09:15:43.270Z,7.30
2018-12-30T09:18:11.661Z,7.30
2018-12-30T09:20:40.379Z,7.50
2018-12-30T09:23:08.781Z,7.50
2018-12-30T09:25:37.439Z,7.50
2018-12-30T09:28:05.838Z,7.60
2018-12-30T09:30:34.237Z,7.50
2018-12-30T09:33:02.645Z,7.50
2018-12-30T09:35:31.041Z,7.50
2018-12-30T09:37:59.447Z,7.50
2018-12-30T09:40:28.123Z,7.60
2018-12-30T09:42:56.825Z,7.60
2018-12-30T09:45:25.235Z,7.60
2018-12-30T09:47:53.650Z,7.50
2018-12-30T09:50:22.367Z,7.60
2018-12-30T09:52:50.767Z,7.70
2018-12-30T09:55:19.157Z,7.80
2018-12-30T09:57:47.557Z,7.70
2018-12-30T10:00:15.949Z,9.30
2018-12-30T10:02:44.363Z,9.70
2018-12-30T10:05:12.753Z,9.30
2018-12-30T10:07:41.170Z,9.00
2018-12-30T10:10:09.913Z,8.80
2018-12-30T10:12:38.327Z,8.70
2018-12-30T10:15:10.026Z,8.30
2018-12-30T10:17:37.304Z,8.00
2018-12-30T10:20:07.554Z,8.00
2018-12-30T10:22:35.953Z,8.10
2018-12-30T10:25:04.895Z,8.10
2018-12-30T10:27:33.305Z,8.00
2018-12-30T10:30:01.959Z,8.00
2018-12-30T10:32:30.361Z,8.00
2018-12-30T10:34:58.766Z,8.00
2018-12-30T10:37:27.507Z,7.90
2018-12-30T10:39:56.186Z,7.90
2018-12-30T10:42:24.888Z,7.80
2018-12-30T10:44:53.569Z,7.80
2018-12-30T10:47:21.974Z,7.90
2018-12-30T10:49:50.635Z,7.90
2018-12-30T10:52:19.319Z,7.80
2018-12-30T10:54:47.728Z,7.80
2018-12-30T10:57:16.136Z,7.80
2018-12-30T10:59:44.542Z,7.80
2018-12-30T11:02:12.950Z,7.80
2018-12-30T11:04:41.350Z,7.80
2018-12-30T11:07:09.843Z,7.90
2018-12-30T11:09:38.587Z,7.90
2018-12-30T11:12:07.044Z,7.90
2018-12-30T11:14:35.435Z,7.80
2018-12-30T11:17:04.140Z,7.70
2018-12-30T11:19:32.931Z,7.70
2018-12-30T11:22:01.607Z,7.60
2018-12-30T11:24:30.009Z,7.60
2018-12-30T11:26:58.680Z,7.70
2018-12-30T11:29:27.086Z,7.70
2018-12-30T11:31:55.723Z,7.70
2018-12-30T11:34:24.138Z,7.70
2018-12-30T11:36:52.538Z,7.50
2018-12-30T11:39:21.287Z,7.40
2018-12-30T11:41:49.997Z,7.40
2018-12-30T11:44:18.780Z,7.40
2018-12-30T11:46:47.247Z,7.60
2018-12-30T11:49:16.058Z,7.60
2018-12-30T11:51:44.455Z,7.70
2018-12-30T11:54:16.621Z,7.70
2018-12-30T11:56:42.981Z,7.70
2018-12-30T11:59:11.386Z,7.60
2018-12-30T12:01:40.075Z,7.70
2018-12-30T12:04:08.482Z,7.60
2018-12-30T12:06:36.883Z,7.60
2018-12-30T12:09:06.961Z,7.60
2018-12-30T12:11:35.757Z,7.60
2018-12-30T12:14:04.167Z,7.60
2018-12-30T12:16:32.570Z,7.60
2018-12-30T12:19:00.978Z,7.60
2018-12-30T12:21:29.379Z,7.70
2018-12-30T12:23:57.781Z,7.60
2018-12-30T12:26:26.427Z,8.60
2018-12-30T12:28:54.830Z,8.30
2018-12-30T12:31:23.239Z,8.20
2018-12-30T12:33:51.641Z,8.00
2018-12-30T12:36:20.051Z,7.90
2018-12-30T12:38:48.459Z,7.80
2018-12-30T12:41:16.862Z,7.70
2018-12-30T12:43:45.262Z,7.70
2018-12-30T12:46:13.715Z,7.60
2018-12-30T12:48:42.114Z,7.70
2018-12-30T12:51:10.514Z,7.70
2018-12-30T12:53:39.319Z,7.70
2018-12-30T12:56:08.033Z,7.60
2018-12-30T12:58:36.806Z,7.60
2018-12-30T13:01:05.195Z,7.70
2018-12-30T13:03:33.593Z,7.80
2018-12-30T13:06:02.002Z,7.80
2018-12-30T13:08:30.725Z,7.90
2018-12-30T13:10:59.529Z,7.90
2018-12-30T13:13:28.264Z,7.90
2018-12-30T13:16:03.347Z,7.90
2018-12-30T13:18:27.097Z,9.00
2018-12-30T13:20:55.505Z,8.80
2018-12-30T13:23:24.170Z,8.60
2018-12-30T13:25:52.574Z,8.40
2018-12-30T13:28:20.987Z,8.60
2018-12-30T13:30:49.389Z,8.40
2018-12-30T13:33:17.805Z,8.30
2018-12-30T13:35:46.274Z,8.00
2018-12-30T13:38:14.690Z,7.90
2018-12-30T13:40:43.094Z,7.80
2018-12-30T13:43:11.499Z,7.70
2018-12-30T13:45:40.304Z,7.70
2018-12-30T13:48:08.794Z,7.70
2018-12-30T13:50:37.471Z,7.70
2018-12-30T13:53:05.871Z,7.70
2018-12-30T13:55:34.531Z,7.70
2018-12-30T13:58:02.993Z,7.70
2018-12-30T14:00:31.397Z,7.70
2018-12-30T14:03:00.083Z,7.70
2018-12-30T14:05:28.770Z,7.80
2018-12-30T14:07:57.455Z,7.80
2018-12-30T14:10:25.864Z,7.80
2018-12-30T14:12:54.522Z,7.80
2018-12-30T14:15:22.941Z,7.80
2018-12-30T14:17:51.340Z,7.80
2018-12-30T14:20:19.810Z,7.70
2018-12-30T14:22:48.618Z,7.70
2018-12-30T14:25:17.339Z,7.70
2018-12-30T14:27:46.022Z,7.80
2018-12-30T14:30:14.710Z,7.80
2018-12-30T14:32:43.395Z,7.90
2018-12-30T14:35:11.789Z,7.80
2018-12-30T14:37:40.515Z,7.90
2018-12-30T14:40:09.027Z,7.90
2018-12-30T14:42:37.754Z,7.80
2018-12-30T14:45:07.868Z,7.80
2018-12-30T14:47:36.342Z,7.90
2018-12-30T14:50:07.800Z,7.80
2018-12-30T14:52:36.570Z,7.70
2018-12-30T14:55:05.422Z,7.70
2018-12-30T14:57:33.841Z,7.60
2018-12-30T15:00:02.247Z,7.70
2018-12-30T15:02:30.723Z,7.70
2018-12-30T15:04:59.164Z,7.80
2018-12-30T15:07:27.574Z,7.80
2018-12-30T15:09:55.980Z,7.70
2018-12-30T15:12:24.387Z,7.70
2018-12-30T15:14:52.874Z,7.70
2018-12-30T15:17:21.277Z,7.50
2018-12-30T15:19:50.074Z,7.50
2018-12-30T15:22:18.607Z,7.50
2018-12-30T15:24:47.357Z,7.50
2018-12-30T15:27:15.759Z,7.60
2018-12-30T15:29:44.416Z,7.60
2018-12-30T15:32:12.831Z,7.60
2018-12-30T15:34:41.226Z,7.60
2018-12-30T15:37:09.639Z,7.60
2018-12-30T15:39:38.334Z,7.70
2018-12-30T15:42:07.025Z,7.70
2018-12-30T15:44:35.429Z,7.70
2018-12-30T15:47:04.097Z,7.70
2018-12-30T15:49:32.781Z,7.70
2018-12-30T15:52:01.544Z,7.70
2018-12-30T15:54:30.299Z,7.60
2018-12-30T15:56:58.935Z,7.60
2018-12-30T15:59:27.343Z,7.60
2018-12-30T16:01:56.004Z,7.50
2018-12-30T16:04:24.410Z,7.60
2018-12-30T16:06:52.815Z,7.60
2018-12-30T16:09:21.208Z,7.60
2018-12-30T16:11:49.616Z,7.70
2018-12-30T16:14:18.024Z,7.70
2018-12-30T16:16:46.430Z,7.70
2018-12-30T16:19:14.839Z,7.70
2018-12-30T16:21:43.560Z,8.30
2018-12-30T16:24:12.207Z,9.10
2018-12-30T16:26:40.618Z,9.20
2018-12-30T16:29:09.309Z,8.90
2018-12-30T16:31:38.047Z,8.50
2018-12-30T16:34:06.460Z,8.30
2018-12-30T16:36:34.860Z,8.30
2018-12-30T16:39:03.833Z,8.30
2018-12-30T16:41:32.239Z,8.30
2018-12-30T16:44:00.646Z,8.10
2018-12-30T16:46:29.037Z,8.00
2018-12-30T16:48:57.444Z,7.90
2018-12-30T16:51:25.837Z,7.70
2018-12-30T16:53:54.354Z,7.70
2018-12-30T16:56:23.016Z,7.70
2018-12-30T16:58:51.426Z,7.50
2018-12-30T17:01:19.828Z,7.40
2018-12-30T17:03:48.243Z,7.40
2018-12-30T17:06:16.725Z,7.40
2018-12-30T17:08:45.147Z,7.40
2018-12-30T17:11:13.794Z,7.20
2018-12-30T17:13:42.206Z,7.10
2018-12-30T17:16:10.867Z,7.10
2018-12-30T17:18:39.551Z,7.10
2018-12-30T17:21:08.026Z,7.10
2018-12-30T17:23:36.413Z,7.00
2018-12-30T17:26:04.831Z,7.10
2018-12-30T17:28:33.230Z,7.10
2018-12-30T17:31:01.967Z,7.10
2018-12-30T17:33:30.365Z,7.10
2018-12-30T17:35:58.774Z,7.10
2018-12-30T17:38:27.503Z,7.00
2018-12-30T17:41:01.502Z,7.10
2018-12-30T17:43:26.519Z,7.10
2018-12-30T17:45:54.922Z,7.10
2018-12-30T17:48:23.596Z,7.10
2018-12-30T17:50:51.997Z,7.10
2018-12-30T17:53:20.441Z,7.20
2018-12-30T17:55:50.906Z,7.20
2018-12-30T17:58:19.252Z,7.10
2018-12-30T18:00:47.903Z,7.10
2018-12-30T18:03:16.619Z,7.10
2018-12-30T18:05:45.029Z,7.10
2018-12-30T18:08:13.422Z,7.20
2018-12-30T18:10:42.171Z,7.20
2018-12-30T18:13:10.857Z,7.10
2018-12-30T18:15:39.342Z,7.20
2018-12-30T18:18:08.026Z,7.20
2018-12-30T18:20:36.447Z,7.20
2018-12-30T18:23:04.852Z,7.10
2018-12-30T18:25:33.259Z,7.10
2018-12-30T18:28:01.653Z,7.20
2018-12-30T18:30:30.067Z,7.30
2018-12-30T18:32:58.469Z,7.30
2018-12-30T18:35:26.898Z,7.30
2018-12-30T18:37:55.306Z,7.30
2018-12-30T18:40:31.675Z,7.30
2018-12-30T18:43:00.426Z,7.30
2018-12-30T18:45:29.125Z,7.30
2018-12-30T18:47:57.795Z,7.30
2018-12-30T18:50:26.258Z,7.30
2018-12-30T18:52:54.665Z,7.20
2018-12-30T18:55:23.375Z,7.30
2018-12-30T18:57:51.890Z,7.30
2018-12-30T19:00:20.510Z,7.30
2018-12-30T19:02:48.914Z,7.30
2018-12-30T19:05:17.327Z,7.30
2018-12-30T19:07:45.820Z,10.40
2018-12-30T19:10:14.547Z,10.00
2018-12-30T19:12:43.230Z,9.50
2018-12-30T19:15:11.634Z,8.90
2018-12-30T19:17:40.119Z,8.50
2018-12-30T19:20:08.513Z,8.20
2018-12-30T19:22:37.253Z,8.00
2018-12-30T19:25:06.031Z,7.90
2018-12-30T19:27:34.727Z,7.90
2018-12-30T19:30:03.289Z,7.90
2018-12-30T19:32:31.995Z,7.80
2018-12-30T19:35:00.399Z,7.80
2018-12-30T19:37:29.070Z,7.70
2018-12-30T19:39:57.473Z,7.70
2018-12-30T19:42:26.121Z,7.60
2018-12-30T19:44:54.820Z,7.70
2018-12-30T19:47:23.239Z,7.70
2018-12-30T19:49:51.881Z,7.60
2018-12-30T19:52:20.564Z,7.60
2018-12-30T19:54:49.079Z,7.60
2018-12-30T19:57:17.734Z,7.60
2018-12-30T19:59:46.144Z,7.60
2018-12-30T20:02:14.561Z,7.60
2018-12-30T20:04:43.292Z,7.60
2018-12-30T20:07:11.699Z,7.50
2018-12-30T20:09:40.357Z,7.50
2018-12-30T20:12:09.035Z,7.50
2018-12-30T20:14:37.723Z,7.60
2018-12-30T20:17:06.126Z,7.60
2018-12-30T20:19:34.798Z,7.60
2018-12-30T20:22:03.190Z,7.70
2018-12-30T20:24:31.597Z,7.70
2018-12-30T20:26:59.999Z,7.70
2018-12-30T20:29:28.454Z,7.70
2018-12-30T20:31:57.090Z,7.70
2018-12-30T20:34:26.727Z,7.80
2018-12-30T20:36:55.273Z,7.90
2018-12-30T20:39:23.971Z,7.80
2018-12-30T20:41:52.373Z,7.80
2018-12-30T20:44:20.782Z,7.80
2018-12-30T20:46:49.182Z,7.80
2018-12-30T20:49:17.897Z,7.70
2018-12-30T20:51:46.315Z,7.80
2018-12-30T20:54:14.731Z,7.80
2018-12-30T20:56:43.141Z,7.80
2018-12-30T20:59:11.827Z,7.80
2018-12-30T21:01:40.234Z,7.80
2018-12-30T21:04:08.890Z,7.80
2018-12-30T21:06:37.295Z,7.80
2018-12-30T21:09:06.333Z,7.80
2018-12-30T21:11:34.744Z,7.80
2018-12-30T21:14:03.439Z,7.90
2018-12-30T21:16:31.830Z,7.90
2018-12-30T21:19:00.237Z,7.90
2018-12-30T21:21:28.979Z,7.90
2018-12-30T21:23:57.394Z,7.90
2018-12-30T21:26:26.038Z,7.90
2018-12-30T21:28:54.457Z,8.00
2018-12-30T21:31:22.850Z,7.90
2018-12-30T21:33:51.399Z,7.90
2018-12-30T21:36:19.837Z,7.90
2018-12-30T21:38:48.558Z,7.90
2018-12-30T21:41:16.982Z,7.90
2018-12-30T21:43:45.374Z,7.90
2018-12-30T21:46:13.783Z,7.90
2018-12-30T21:48:42.301Z,8.00
2018-12-30T21:51:10.718Z,8.10
2018-12-30T21:53:39.451Z,8.10
2018-12-30T21:56:07.864Z,8.10
2018-12-30T21:58:36.511Z,8.00
2018-12-30T22:01:04.916Z,8.10
2018-12-30T22:03:33.328Z,8.10
2018-12-30T22:06:01.739Z,8.20
2018-12-30T22:08:30.158Z,8.10
2018-12-30T22:10:58.819Z,8.10
2018-12-30T22:13:27.504Z,8.10
2018-12-30T22:15:56.280Z,8.00
2018-12-30T22:18:24.989Z,8.10
2018-12-30T22:20:53.407Z,8.00
2018-12-30T22:23:21.890Z,8.10
2018-12-30T22:25:50.307Z,8.10
2018-12-30T22:28:19.001Z,8.00
2018-12-30T22:30:47.410Z,8.00
2018-12-30T22:33:15.816Z,8.00
2018-12-30T22:35:44.555Z,8.00
2018-12-30T22:38:12.960Z,7.90
2018-12-30T22:40:41.374Z,7.90
2018-12-30T22:43:10.103Z,7.90
2018-12-30T22:45:38.514Z,8.00
2018-12-30T22:48:06.918Z,8.00
2018-12-30T22:50:35.321Z,8.00
2018-12-30T22:53:03.736Z,8.10
2018-12-30T22:55:32.150Z,8.10
2018-12-30T22:58:00.909Z,8.10
2018-12-30T23:00:34.487Z,8.10
2018-12-30T23:03:02.963Z,8.10
2018-12-30T23:05:31.491Z,8.10
2018-12-30T23:07:59.889Z,8.10
2018-12-30T23:10:28.624Z,8.10
2018-12-30T23:12:59.762Z,8.10
2018-12-30T23:15:28.163Z,8.20
2018-12-30T23:17:56.831Z,8.20
2018-12-30T23:20:25.518Z,8.20
2018-12-30T23:22:54.011Z,8.20
2018-12-30T23:25:22.646Z,8.20
2018-12-30T23:27:51.058Z,8.20
2018-12-30T23:30:19.752Z,8.20
2018-12-30T23:32:48.168Z,8.20
2018-12-30T23:35:16.818Z,8.20
2018-12-30T23:37:45.510Z,8.20
2018-12-30T23:40:14.192Z,8.30
2018-12-30T23:42:42.603Z,8.30
2018-12-30T23:45:11.262Z,8.30
2018-12-30T23:47:39.943Z,8.20
2018-12-30T23:50:08.629Z,8.20
2018-12-30T23:52:37.044Z,8.20
2018-12-30T23:55:05.886Z,8.20
2018-12-30T23:57:34.298Z,8.20
